sensor_id;sensor_type;location;lat;lon;timestamp;P1;durP1;ratioP1;P2;durP2;ratioP2
36689;SDS011;22676;51.120;3.702;2023-07-13T00:01:50;2.08;;;1.15;;
36689;SDS011;22676;51.120;3.702;2023-07-13T00:04:17;2.20;;;1.00;;
36689;SDS011;22676;51.120;3.702;2023-07-13T00:06:44;1.65;;;0.98;;
36689;SDS011;22676;51.120;3.702;2023-07-13T00:09:14;2.90;;;0.98;;
36689;SDS011;22676;51.120;3.702;2023-07-13T00:11:41;2.45;;;1.08;;
36689;SDS011;22676;51.120;3.702;2023-07-13T00:14:08;3.92;;;1.00;;
36689;SDS011;22676;51.120;3.702;2023-07-13T00:16:34;3.20;;;0.80;;
36689;SDS011;22676;51.120;3.702;2023-07-13T00:19:01;3.78;;;1.45;;
36689;SDS011;22676;51.120;3.702;2023-07-13T00:21:27;1.63;;;0.90;;
36689;SDS011;22676;51.120;3.702;2023-07-13T00:23:53;1.55;;;0.90;;
36689;SDS011;22676;51.120;3.702;2023-07-13T00:26:19;4.95;;;1.00;;
36689;SDS011;22676;51.120;3.702;2023-07-13T00:28:45;1.67;;;0.88;;
36689;SDS011;22676;51.120;3.702;2023-07-13T00:31:11;1.83;;;1.08;;
36689;SDS011;22676;51.120;3.702;2023-07-13T00:33:39;2.05;;;0.80;;
36689;SDS011;22676;51.120;3.702;2023-07-13T00:36:05;2.22;;;0.80;;
36689;SDS011;22676;51.120;3.702;2023-07-13T00:38:31;2.95;;;1.00;;
36689;SDS011;22676;51.120;3.702;2023-07-13T00:40:57;1.77;;;0.75;;
36689;SDS011;22676;51.120;3.702;2023-07-13T00:43:24;1.98;;;1.08;;
36689;SDS011;22676;51.120;3.702;2023-07-13T00:48:21;1.65;;;1.10;;
36689;SDS011;22676;51.120;3.702;2023-07-13T00:50:55;1.42;;;0.98;;
36689;SDS011;22676;51.120;3.702;2023-07-13T00:53:23;3.22;;;1.20;;
36689;SDS011;22676;51.120;3.702;2023-07-13T00:55:50;1.45;;;0.95;;
36689;SDS011;22676;51.120;3.702;2023-07-13T00:58:18;3.08;;;0.95;;
36689;SDS011;22676;51.120;3.702;2023-07-13T01:00:44;1.73;;;1.00;;
36689;SDS011;22676;51.120;3.702;2023-07-13T01:03:13;2.15;;;1.02;;
36689;SDS011;22676;51.120;3.702;2023-07-13T01:05:40;2.10;;;1.05;;
36689;SDS011;22676;51.120;3.702;2023-07-13T01:08:06;1.30;;;0.80;;
36689;SDS011;22676;51.120;3.702;2023-07-13T01:10:32;2.63;;;0.93;;
36689;SDS011;22676;51.120;3.702;2023-07-13T01:13:03;1.95;;;0.90;;
36689;SDS011;22676;51.120;3.702;2023-07-13T01:15:37;1.80;;;0.77;;
36689;SDS011;22676;51.120;3.702;2023-07-13T01:18:12;1.25;;;0.80;;
36689;SDS011;22676;51.120;3.702;2023-07-13T01:23:21;1.50;;;0.80;;
36689;SDS011;22676;51.120;3.702;2023-07-13T01:25:48;2.38;;;0.90;;
36689;SDS011;22676;51.120;3.702;2023-07-13T01:28:14;2.22;;;1.00;;
36689;SDS011;22676;51.120;3.702;2023-07-13T01:30:41;2.47;;;1.08;;
36689;SDS011;22676;51.120;3.702;2023-07-13T01:33:10;1.95;;;1.20;;
36689;SDS011;22676;51.120;3.702;2023-07-13T01:35:38;2.08;;;1.10;;
36689;SDS011;22676;51.120;3.702;2023-07-13T01:38:04;2.80;;;1.10;;
36689;SDS011;22676;51.120;3.702;2023-07-13T01:40:30;2.05;;;0.85;;
36689;SDS011;22676;51.120;3.702;2023-07-13T01:42:56;1.33;;;0.90;;
36689;SDS011;22676;51.120;3.702;2023-07-13T01:45:23;1.98;;;0.90;;
36689;SDS011;22676;51.120;3.702;2023-07-13T01:47:49;1.23;;;0.93;;
36689;SDS011;22676;51.120;3.702;2023-07-13T01:50:14;4.10;;;1.13;;
36689;SDS011;22676;51.120;3.702;2023-07-13T01:52:40;2.72;;;0.85;;
36689;SDS011;22676;51.120;3.702;2023-07-13T01:55:06;1.20;;;0.88;;
36689;SDS011;22676;51.120;3.702;2023-07-13T01:57:32;2.03;;;0.98;;
36689;SDS011;22676;51.120;3.702;2023-07-13T01:59:58;4.68;;;0.85;;
36689;SDS011;22676;51.120;3.702;2023-07-13T02:02:24;2.00;;;0.90;;
36689;SDS011;22676;51.120;3.702;2023-07-13T02:04:50;1.88;;;0.90;;
36689;SDS011;22676;51.120;3.702;2023-07-13T02:07:15;2.22;;;1.00;;
36689;SDS011;22676;51.120;3.702;2023-07-13T02:09:41;2.28;;;1.17;;
36689;SDS011;22676;51.120;3.702;2023-07-13T02:12:07;1.75;;;0.90;;
36689;SDS011;22676;51.120;3.702;2023-07-13T02:14:33;1.58;;;1.02;;
36689;SDS011;22676;51.120;3.702;2023-07-13T02:16:59;1.50;;;0.90;;
36689;SDS011;22676;51.120;3.702;2023-07-13T02:19:24;2.25;;;1.13;;
36689;SDS011;22676;51.120;3.702;2023-07-13T02:21:50;2.40;;;0.88;;
36689;SDS011;22676;51.120;3.702;2023-07-13T02:24:16;1.85;;;1.00;;
36689;SDS011;22676;51.120;3.702;2023-07-13T02:26:44;2.28;;;1.13;;
36689;SDS011;22676;51.120;3.702;2023-07-13T02:29:10;1.27;;;0.90;;
36689;SDS011;22676;51.120;3.702;2023-07-13T02:31:36;1.00;;;0.80;;
36689;SDS011;22676;51.120;3.702;2023-07-13T02:34:02;2.40;;;0.73;;
36689;SDS011;22676;51.120;3.702;2023-07-13T02:36:29;0.93;;;0.70;;
36689;SDS011;22676;51.120;3.702;2023-07-13T02:38:55;1.88;;;0.90;;
36689;SDS011;22676;51.120;3.702;2023-07-13T02:41:20;1.27;;;0.88;;
36689;SDS011;22676;51.120;3.702;2023-07-13T02:43:48;1.73;;;0.93;;
36689;SDS011;22676;51.120;3.702;2023-07-13T02:46:13;2.80;;;1.00;;
36689;SDS011;22676;51.120;3.702;2023-07-13T02:48:39;2.38;;;1.00;;
36689;SDS011;22676;51.120;3.702;2023-07-13T02:51:06;2.03;;;1.10;;
36689;SDS011;22676;51.120;3.702;2023-07-13T02:53:32;2.33;;;1.02;;
36689;SDS011;22676;51.120;3.702;2023-07-13T02:55:58;1.65;;;0.90;;
36689;SDS011;22676;51.120;3.702;2023-07-13T02:58:24;3.88;;;1.10;;
36689;SDS011;22676;51.120;3.702;2023-07-13T03:00:51;1.65;;;0.90;;
36689;SDS011;22676;51.120;3.702;2023-07-13T03:03:17;2.17;;;1.10;;
36689;SDS011;22676;51.120;3.702;2023-07-13T03:05:43;1.70;;;1.17;;
36689;SDS011;22676;51.120;3.702;2023-07-13T03:08:10;2.70;;;1.15;;
36689;SDS011;22676;51.120;3.702;2023-07-13T03:10:36;1.98;;;1.00;;
36689;SDS011;22676;51.120;3.702;2023-07-13T03:13:02;1.42;;;0.90;;
36689;SDS011;22676;51.120;3.702;2023-07-13T03:15:28;2.17;;;1.00;;
36689;SDS011;22676;51.120;3.702;2023-07-13T03:17:54;1.83;;;0.95;;
36689;SDS011;22676;51.120;3.702;2023-07-13T03:20:20;2.30;;;1.33;;
36689;SDS011;22676;51.120;3.702;2023-07-13T03:22:45;1.30;;;0.90;;
36689;SDS011;22676;51.120;3.702;2023-07-13T03:25:11;2.03;;;1.05;;
36689;SDS011;22676;51.120;3.702;2023-07-13T03:27:37;1.42;;;0.93;;
36689;SDS011;22676;51.120;3.702;2023-07-13T03:30:06;2.15;;;1.10;;
36689;SDS011;22676;51.120;3.702;2023-07-13T03:32:32;1.63;;;1.00;;
36689;SDS011;22676;51.120;3.702;2023-07-13T03:34:58;1.55;;;0.90;;
36689;SDS011;22676;51.120;3.702;2023-07-13T03:37:24;1.67;;;1.00;;
36689;SDS011;22676;51.120;3.702;2023-07-13T03:39:49;3.63;;;1.00;;
36689;SDS011;22676;51.120;3.702;2023-07-13T03:42:15;3.45;;;1.02;;
36689;SDS011;22676;51.120;3.702;2023-07-13T03:44:41;3.08;;;0.80;;
36689;SDS011;22676;51.120;3.702;2023-07-13T03:47:10;1.08;;;0.90;;
36689;SDS011;22676;51.120;3.702;2023-07-13T03:49:36;1.17;;;0.80;;
36689;SDS011;22676;51.120;3.702;2023-07-13T03:52:02;1.48;;;0.90;;
36689;SDS011;22676;51.120;3.702;2023-07-13T03:54:28;1.25;;;0.75;;
36689;SDS011;22676;51.120;3.702;2023-07-13T03:56:53;1.48;;;0.77;;
36689;SDS011;22676;51.120;3.702;2023-07-13T03:59:20;1.63;;;0.98;;
36689;SDS011;22676;51.120;3.702;2023-07-13T04:01:45;2.17;;;0.98;;
36689;SDS011;22676;51.120;3.702;2023-07-13T04:04:11;3.60;;;1.27;;
36689;SDS011;22676;51.120;3.702;2023-07-13T04:06:37;4.15;;;1.20;;
36689;SDS011;22676;51.120;3.702;2023-07-13T04:09:03;1.45;;;0.80;;
36689;SDS011;22676;51.120;3.702;2023-07-13T04:11:33;1.70;;;0.90;;
36689;SDS011;22676;51.120;3.702;2023-07-13T04:14:01;1.48;;;0.80;;
36689;SDS011;22676;51.120;3.702;2023-07-13T04:16:27;2.38;;;1.00;;
36689;SDS011;22676;51.120;3.702;2023-07-13T04:18:54;2.83;;;0.98;;
36689;SDS011;22676;51.120;3.702;2023-07-13T04:21:24;3.97;;;0.88;;
36689;SDS011;22676;51.120;3.702;2023-07-13T04:23:52;0.95;;;0.70;;
36689;SDS011;22676;51.120;3.702;2023-07-13T04:26:18;1.40;;;0.88;;
36689;SDS011;22676;51.120;3.702;2023-07-13T04:28:46;1.83;;;0.80;;
36689;SDS011;22676;51.120;3.702;2023-07-13T04:31:12;1.10;;;0.80;;
36689;SDS011;22676;51.120;3.702;2023-07-13T04:33:38;2.33;;;1.00;;
36689;SDS011;22676;51.120;3.702;2023-07-13T04:36:04;1.63;;;0.90;;
36689;SDS011;22676;51.120;3.702;2023-07-13T04:38:30;1.95;;;1.05;;
36689;SDS011;22676;51.120;3.702;2023-07-13T04:41:01;1.90;;;1.00;;
36689;SDS011;22676;51.120;3.702;2023-07-13T04:43:29;1.63;;;1.10;;
36689;SDS011;22676;51.120;3.702;2023-07-13T04:45:55;1.98;;;1.00;;
36689;SDS011;22676;51.120;3.702;2023-07-13T04:48:21;2.10;;;1.10;;
36689;SDS011;22676;51.120;3.702;2023-07-13T04:50:53;3.30;;;1.20;;
36689;SDS011;22676;51.120;3.702;2023-07-13T04:53:20;2.17;;;1.00;;
36689;SDS011;22676;51.120;3.702;2023-07-13T04:55:46;1.73;;;0.82;;
36689;SDS011;22676;51.120;3.702;2023-07-13T04:58:12;1.38;;;0.77;;
36689;SDS011;22676;51.120;3.702;2023-07-13T05:00:38;1.98;;;0.70;;
36689;SDS011;22676;51.120;3.702;2023-07-13T05:03:04;1.38;;;1.05;;
36689;SDS011;22676;51.120;3.702;2023-07-13T05:05:30;3.38;;;1.33;;
36689;SDS011;22676;51.120;3.702;2023-07-13T05:07:56;3.38;;;1.60;;
36689;SDS011;22676;51.120;3.702;2023-07-13T05:10:22;5.30;;;1.92;;
36689;SDS011;22676;51.120;3.702;2023-07-13T05:12:48;8.48;;;2.00;;
36689;SDS011;22676;51.120;3.702;2023-07-13T05:15:14;6.78;;;2.15;;
36689;SDS011;22676;51.120;3.702;2023-07-13T05:17:39;6.63;;;2.70;;
36689;SDS011;22676;51.120;3.702;2023-07-13T05:20:06;5.20;;;1.92;;
36689;SDS011;22676;51.120;3.702;2023-07-13T05:22:32;8.30;;;2.78;;
36689;SDS011;22676;51.120;3.702;2023-07-13T05:25:00;12.02;;;2.92;;
36689;SDS011;22676;51.120;3.702;2023-07-13T05:27:34;8.43;;;2.40;;
36689;SDS011;22676;51.120;3.702;2023-07-13T05:30:01;11.57;;;3.20;;
36689;SDS011;22676;51.120;3.702;2023-07-13T05:32:28;13.13;;;3.05;;
36689;SDS011;22676;51.120;3.702;2023-07-13T05:34:54;11.82;;;3.00;;
36689;SDS011;22676;51.120;3.702;2023-07-13T05:37:19;11.73;;;3.13;;
36689;SDS011;22676;51.120;3.702;2023-07-13T05:39:45;8.85;;;3.00;;
36689;SDS011;22676;51.120;3.702;2023-07-13T05:42:11;10.68;;;3.20;;
36689;SDS011;22676;51.120;3.702;2023-07-13T05:44:36;13.52;;;3.10;;
36689;SDS011;22676;51.120;3.702;2023-07-13T05:47:02;9.50;;;2.80;;
36689;SDS011;22676;51.120;3.702;2023-07-13T05:49:28;8.27;;;2.78;;
36689;SDS011;22676;51.120;3.702;2023-07-13T05:51:55;9.88;;;3.00;;
36689;SDS011;22676;51.120;3.702;2023-07-13T05:54:21;9.70;;;3.13;;
36689;SDS011;22676;51.120;3.702;2023-07-13T05:56:47;9.63;;;3.08;;
36689;SDS011;22676;51.120;3.702;2023-07-13T05:59:12;8.27;;;2.80;;
36689;SDS011;22676;51.120;3.702;2023-07-13T06:01:38;12.02;;;3.40;;
36689;SDS011;22676;51.120;3.702;2023-07-13T06:04:04;8.20;;;2.95;;
36689;SDS011;22676;51.120;3.702;2023-07-13T06:06:29;9.68;;;3.20;;
36689;SDS011;22676;51.120;3.702;2023-07-13T06:08:55;10.68;;;2.95;;
36689;SDS011;22676;51.120;3.702;2023-07-13T06:11:22;9.88;;;3.20;;
36689;SDS011;22676;51.120;3.702;2023-07-13T06:13:49;9.20;;;2.50;;
36689;SDS011;22676;51.120;3.702;2023-07-13T06:16:15;13.02;;;3.83;;
36689;SDS011;22676;51.120;3.702;2023-07-13T06:18:41;15.35;;;3.78;;
36689;SDS011;22676;51.120;3.702;2023-07-13T06:21:08;12.13;;;3.38;;
36689;SDS011;22676;51.120;3.702;2023-07-13T06:23:38;9.77;;;3.17;;
36689;SDS011;22676;51.120;3.702;2023-07-13T06:26:04;12.32;;;3.40;;
36689;SDS011;22676;51.120;3.702;2023-07-13T06:28:31;12.88;;;3.40;;
36689;SDS011;22676;51.120;3.702;2023-07-13T06:30:57;6.78;;;2.58;;
36689;SDS011;22676;51.120;3.702;2023-07-13T06:33:24;8.70;;;3.30;;
36689;SDS011;22676;51.120;3.702;2023-07-13T06:35:50;10.45;;;3.30;;
36689;SDS011;22676;51.120;3.702;2023-07-13T06:38:16;11.93;;;3.25;;
36689;SDS011;22676;51.120;3.702;2023-07-13T06:40:42;7.85;;;2.97;;
36689;SDS011;22676;51.120;3.702;2023-07-13T06:43:08;11.13;;;2.90;;
36689;SDS011;22676;51.120;3.702;2023-07-13T06:45:40;9.27;;;3.33;;
36689;SDS011;22676;51.120;3.702;2023-07-13T06:48:10;11.82;;;3.47;;
36689;SDS011;22676;51.120;3.702;2023-07-13T06:50:36;14.95;;;3.53;;
36689;SDS011;22676;51.120;3.702;2023-07-13T06:53:02;8.88;;;3.03;;
36689;SDS011;22676;51.120;3.702;2023-07-13T06:55:28;12.32;;;3.30;;
36689;SDS011;22676;51.120;3.702;2023-07-13T06:57:53;11.63;;;3.70;;
36689;SDS011;22676;51.120;3.702;2023-07-13T07:00:19;13.98;;;3.53;;
36689;SDS011;22676;51.120;3.702;2023-07-13T07:02:45;12.18;;;3.25;;
36689;SDS011;22676;51.120;3.702;2023-07-13T07:05:10;13.98;;;4.05;;
36689;SDS011;22676;51.120;3.702;2023-07-13T07:07:36;12.20;;;3.35;;
36689;SDS011;22676;51.120;3.702;2023-07-13T07:10:02;13.43;;;3.15;;
36689;SDS011;22676;51.120;3.702;2023-07-13T07:12:28;10.40;;;3.28;;
36689;SDS011;22676;51.120;3.702;2023-07-13T07:14:54;11.13;;;3.15;;
36689;SDS011;22676;51.120;3.702;2023-07-13T07:17:19;14.35;;;3.60;;
36689;SDS011;22676;51.120;3.702;2023-07-13T07:19:45;11.93;;;3.28;;
36689;SDS011;22676;51.120;3.702;2023-07-13T07:22:11;15.60;;;3.53;;
36689;SDS011;22676;51.120;3.702;2023-07-13T07:24:36;13.35;;;3.42;;
36689;SDS011;22676;51.120;3.702;2023-07-13T07:27:02;13.32;;;3.00;;
36689;SDS011;22676;51.120;3.702;2023-07-13T07:29:28;9.48;;;3.10;;
36689;SDS011;22676;51.120;3.702;2023-07-13T07:31:53;10.27;;;3.25;;
36689;SDS011;22676;51.120;3.702;2023-07-13T07:34:19;9.77;;;3.40;;
36689;SDS011;22676;51.120;3.702;2023-07-13T07:36:45;11.15;;;3.17;;
36689;SDS011;22676;51.120;3.702;2023-07-13T07:39:11;8.55;;;2.78;;
36689;SDS011;22676;51.120;3.702;2023-07-13T07:41:37;8.68;;;3.00;;
36689;SDS011;22676;51.120;3.702;2023-07-13T07:44:03;13.82;;;3.47;;
36689;SDS011;22676;51.120;3.702;2023-07-13T07:46:29;12.75;;;3.08;;
36689;SDS011;22676;51.120;3.702;2023-07-13T07:48:55;12.25;;;3.35;;
36689;SDS011;22676;51.120;3.702;2023-07-13T07:51:21;8.98;;;2.90;;
36689;SDS011;22676;51.120;3.702;2023-07-13T07:53:47;10.25;;;2.80;;
36689;SDS011;22676;51.120;3.702;2023-07-13T07:56:13;9.00;;;3.10;;
36689;SDS011;22676;51.120;3.702;2023-07-13T07:58:41;8.35;;;2.72;;
36689;SDS011;22676;51.120;3.702;2023-07-13T08:01:07;7.82;;;2.85;;
36689;SDS011;22676;51.120;3.702;2023-07-13T08:03:33;8.30;;;2.63;;
36689;SDS011;22676;51.120;3.702;2023-07-13T08:05:58;11.57;;;2.80;;
36689;SDS011;22676;51.120;3.702;2023-07-13T08:08:24;10.68;;;2.80;;
36689;SDS011;22676;51.120;3.702;2023-07-13T08:10:50;9.30;;;2.25;;
36689;SDS011;22676;51.120;3.702;2023-07-13T08:13:16;8.65;;;2.45;;
36689;SDS011;22676;51.120;3.702;2023-07-13T08:15:42;8.10;;;2.05;;
36689;SDS011;22676;51.120;3.702;2023-07-13T08:18:08;6.68;;;2.28;;
36689;SDS011;22676;51.120;3.702;2023-07-13T08:20:36;8.20;;;2.58;;
36689;SDS011;22676;51.120;3.702;2023-07-13T08:23:05;5.82;;;2.15;;
36689;SDS011;22676;51.120;3.702;2023-07-13T08:25:34;9.35;;;2.30;;
36689;SDS011;22676;51.120;3.702;2023-07-13T08:28:00;7.47;;;2.33;;
36689;SDS011;22676;51.120;3.702;2023-07-13T08:30:26;7.75;;;2.63;;
36689;SDS011;22676;51.120;3.702;2023-07-13T08:32:53;4.53;;;2.42;;
36689;SDS011;22676;51.120;3.702;2023-07-13T08:35:18;7.72;;;2.72;;
36689;SDS011;22676;51.120;3.702;2023-07-13T08:37:44;8.00;;;2.60;;
36689;SDS011;22676;51.120;3.702;2023-07-13T08:40:10;8.77;;;2.63;;
36689;SDS011;22676;51.120;3.702;2023-07-13T08:42:43;4.72;;;2.10;;
36689;SDS011;22676;51.120;3.702;2023-07-13T08:45:21;11.07;;;2.50;;
36689;SDS011;22676;51.120;3.702;2023-07-13T08:47:54;7.43;;;2.55;;
36689;SDS011;22676;51.120;3.702;2023-07-13T08:50:29;8.32;;;2.67;;
36689;SDS011;22676;51.120;3.702;2023-07-13T08:52:59;7.07;;;2.35;;
36689;SDS011;22676;51.120;3.702;2023-07-13T08:55:29;9.02;;;2.70;;
36689;SDS011;22676;51.120;3.702;2023-07-13T08:58:03;6.05;;;2.25;;
36689;SDS011;22676;51.120;3.702;2023-07-13T09:00:56;6.00;;;2.58;;
36689;SDS011;22676;51.120;3.702;2023-07-13T09:03:24;8.93;;;2.40;;
36689;SDS011;22676;51.120;3.702;2023-07-13T09:05:56;5.35;;;2.10;;
36689;SDS011;22676;51.120;3.702;2023-07-13T09:14:00;4.30;;;2.00;;
36689;SDS011;22676;51.120;3.702;2023-07-13T09:16:44;6.78;;;2.20;;
36689;SDS011;22676;51.120;3.702;2023-07-13T09:19:16;5.50;;;2.30;;
36689;SDS011;22676;51.120;3.702;2023-07-13T09:21:55;6.55;;;2.22;;
36689;SDS011;22676;51.120;3.702;2023-07-13T09:24:28;4.70;;;2.10;;
36689;SDS011;22676;51.120;3.702;2023-07-13T09:27:14;8.50;;;2.17;;
36689;SDS011;22676;51.120;3.702;2023-07-13T09:32:46;8.02;;;1.92;;
36689;SDS011;22676;51.120;3.702;2023-07-13T09:35:18;4.95;;;2.10;;
36689;SDS011;22676;51.120;3.702;2023-07-13T09:37:46;5.55;;;2.33;;
36689;SDS011;22676;51.120;3.702;2023-07-13T09:40:20;7.35;;;2.50;;
36689;SDS011;22676;51.120;3.702;2023-07-13T09:42:53;7.03;;;2.30;;
36689;SDS011;22676;51.120;3.702;2023-07-13T09:45:28;6.45;;;2.28;;
36689;SDS011;22676;51.120;3.702;2023-07-13T09:48:05;5.88;;;2.45;;
36689;SDS011;22676;51.120;3.702;2023-07-13T09:50:35;6.57;;;2.28;;
36689;SDS011;22676;51.120;3.702;2023-07-13T09:53:01;6.53;;;2.30;;
36689;SDS011;22676;51.120;3.702;2023-07-13T09:57:56;6.72;;;2.42;;
36689;SDS011;22676;51.120;3.702;2023-07-13T10:00:26;9.50;;;2.85;;
36689;SDS011;22676;51.120;3.702;2023-07-13T10:03:00;10.70;;;2.50;;
36689;SDS011;22676;51.120;3.702;2023-07-13T10:05:40;5.13;;;2.15;;
36689;SDS011;22676;51.120;3.702;2023-07-13T10:08:14;7.10;;;2.15;;
36689;SDS011;22676;51.120;3.702;2023-07-13T10:10:59;7.68;;;2.70;;
36689;SDS011;22676;51.120;3.702;2023-07-13T10:13:26;9.02;;;2.88;;
36689;SDS011;22676;51.120;3.702;2023-07-13T10:16:16;10.32;;;2.95;;
36689;SDS011;22676;51.120;3.702;2023-07-13T10:18:45;8.93;;;2.83;;
36689;SDS011;22676;51.120;3.702;2023-07-13T10:21:20;7.68;;;2.63;;
36689;SDS011;22676;51.120;3.702;2023-07-13T10:24:02;7.63;;;2.42;;
36689;SDS011;22676;51.120;3.702;2023-07-13T10:29:23;8.88;;;2.47;;
36689;SDS011;22676;51.120;3.702;2023-07-13T10:31:52;5.45;;;2.05;;
36689;SDS011;22676;51.120;3.702;2023-07-13T10:34:18;7.05;;;2.60;;
36689;SDS011;22676;51.120;3.702;2023-07-13T10:36:45;7.75;;;2.25;;
36689;SDS011;22676;51.120;3.702;2023-07-13T10:39:16;7.18;;;2.10;;
36689;SDS011;22676;51.120;3.702;2023-07-13T10:41:45;12.88;;;2.50;;
36689;SDS011;22676;51.120;3.702;2023-07-13T10:44:25;4.35;;;2.22;;
36689;SDS011;22676;51.120;3.702;2023-07-13T10:46:54;5.20;;;1.90;;
36689;SDS011;22676;51.120;3.702;2023-07-13T10:49:23;4.82;;;1.98;;
36689;SDS011;22676;51.120;3.702;2023-07-13T10:51:51;8.25;;;1.80;;
36689;SDS011;22676;51.120;3.702;2023-07-13T10:54:19;9.05;;;2.25;;
36689;SDS011;22676;51.120;3.702;2023-07-13T10:56:49;5.40;;;2.08;;
36689;SDS011;22676;51.120;3.702;2023-07-13T10:59:26;5.45;;;2.13;;
36689;SDS011;22676;51.120;3.702;2023-07-13T11:04:21;6.57;;;2.45;;
36689;SDS011;22676;51.120;3.702;2023-07-13T11:06:50;5.10;;;1.85;;
36689;SDS011;22676;51.120;3.702;2023-07-13T11:12:06;6.88;;;2.00;;
36689;SDS011;22676;51.120;3.702;2023-07-13T11:15:02;4.68;;;1.95;;
36689;SDS011;22676;51.120;3.702;2023-07-13T11:17:36;4.33;;;2.00;;
36689;SDS011;22676;51.120;3.702;2023-07-13T11:22:53;3.75;;;1.88;;
36689;SDS011;22676;51.120;3.702;2023-07-13T11:25:35;5.10;;;2.00;;
36689;SDS011;22676;51.120;3.702;2023-07-13T11:33:15;6.30;;;2.63;;
36689;SDS011;22676;51.120;3.702;2023-07-13T11:35:42;4.15;;;2.00;;
36689;SDS011;22676;51.120;3.702;2023-07-13T11:38:20;4.82;;;2.13;;
36689;SDS011;22676;51.120;3.702;2023-07-13T11:40:48;3.75;;;1.80;;
36689;SDS011;22676;51.120;3.702;2023-07-13T11:43:17;2.45;;;1.52;;
36689;SDS011;22676;51.120;3.702;2023-07-13T11:45:43;3.40;;;1.60;;
36689;SDS011;22676;51.120;3.702;2023-07-13T11:48:19;6.22;;;1.90;;
36689;SDS011;22676;51.120;3.702;2023-07-13T11:50:53;3.63;;;1.75;;
36689;SDS011;22676;51.120;3.702;2023-07-13T11:53:22;3.35;;;2.10;;
36689;SDS011;22676;51.120;3.702;2023-07-13T11:55:50;4.82;;;1.98;;
36689;SDS011;22676;51.120;3.702;2023-07-13T11:58:17;4.95;;;1.67;;
36689;SDS011;22676;51.120;3.702;2023-07-13T12:00:48;3.17;;;1.70;;
36689;SDS011;22676;51.120;3.702;2023-07-13T12:03:16;6.80;;;1.92;;
36689;SDS011;22676;51.120;3.702;2023-07-13T12:05:54;5.00;;;2.00;;
36689;SDS011;22676;51.120;3.702;2023-07-13T12:08:25;7.90;;;1.77;;
36689;SDS011;22676;51.120;3.702;2023-07-13T12:10:59;5.00;;;2.10;;
36689;SDS011;22676;51.120;3.702;2023-07-13T12:13:34;2.72;;;1.40;;
36689;SDS011;22676;51.120;3.702;2023-07-13T12:16:02;1.58;;;1.27;;
36689;SDS011;22676;51.120;3.702;2023-07-13T12:18:49;3.00;;;1.50;;
36689;SDS011;22676;51.120;3.702;2023-07-13T12:21:18;4.32;;;1.50;;
36689;SDS011;22676;51.120;3.702;2023-07-13T12:23:47;3.95;;;2.15;;
36689;SDS011;22676;51.120;3.702;2023-07-13T12:26:15;2.95;;;1.45;;
36689;SDS011;22676;51.120;3.702;2023-07-13T12:28:49;3.15;;;1.23;;
36689;SDS011;22676;51.120;3.702;2023-07-13T12:33:45;2.30;;;1.55;;
36689;SDS011;22676;51.120;3.702;2023-07-13T12:36:11;1.85;;;1.20;;
36689;SDS011;22676;51.120;3.702;2023-07-13T12:38:37;2.17;;;1.25;;
36689;SDS011;22676;51.120;3.702;2023-07-13T12:41:03;3.42;;;1.50;;
36689;SDS011;22676;51.120;3.702;2023-07-13T12:43:32;3.88;;;1.40;;
36689;SDS011;22676;51.120;3.702;2023-07-13T12:46:05;3.35;;;1.80;;
36689;SDS011;22676;51.120;3.702;2023-07-13T12:48:48;3.28;;;1.38;;
36689;SDS011;22676;51.120;3.702;2023-07-13T12:51:15;1.58;;;1.42;;
36689;SDS011;22676;51.120;3.702;2023-07-13T12:53:43;2.90;;;1.33;;
36689;SDS011;22676;51.120;3.702;2023-07-13T12:58:49;2.40;;;1.20;;
36689;SDS011;22676;51.120;3.702;2023-07-13T13:01:25;1.75;;;1.20;;
36689;SDS011;22676;51.120;3.702;2023-07-13T13:03:53;3.60;;;1.50;;
36689;SDS011;22676;51.120;3.702;2023-07-13T13:06:24;2.42;;;1.17;;
36689;SDS011;22676;51.120;3.702;2023-07-13T13:08:53;4.00;;;1.25;;
36689;SDS011;22676;51.120;3.702;2023-07-13T13:11:20;1.88;;;1.13;;
36689;SDS011;22676;51.120;3.702;2023-07-13T13:13:48;1.83;;;1.20;;
36689;SDS011;22676;51.120;3.702;2023-07-13T13:16:17;1.13;;;1.02;;
36689;SDS011;22676;51.120;3.702;2023-07-13T13:18:54;2.88;;;1.10;;
36689;SDS011;22676;51.120;3.702;2023-07-13T13:21:23;1.90;;;1.35;;
36689;SDS011;22676;51.120;3.702;2023-07-13T13:23:49;1.85;;;1.17;;
36689;SDS011;22676;51.120;3.702;2023-07-13T13:26:16;2.13;;;1.08;;
36689;SDS011;22676;51.120;3.702;2023-07-13T13:28:49;1.90;;;1.10;;
36689;SDS011;22676;51.120;3.702;2023-07-13T13:31:15;4.03;;;1.20;;
36689;SDS011;22676;51.120;3.702;2023-07-13T13:33:41;3.97;;;1.30;;
36689;SDS011;22676;51.120;3.702;2023-07-13T13:36:16;3.80;;;1.20;;
36689;SDS011;22676;51.120;3.702;2023-07-13T13:38:44;1.50;;;1.20;;
36689;SDS011;22676;51.120;3.702;2023-07-13T13:41:11;1.95;;;1.25;;
36689;SDS011;22676;51.120;3.702;2023-07-13T13:43:38;2.13;;;1.10;;
36689;SDS011;22676;51.120;3.702;2023-07-13T13:46:10;5.47;;;1.33;;
36689;SDS011;22676;51.120;3.702;2023-07-13T13:48:49;1.67;;;1.20;;
36689;SDS011;22676;51.120;3.702;2023-07-13T13:51:20;1.38;;;1.00;;
36689;SDS011;22676;51.120;3.702;2023-07-13T13:53:47;1.77;;;1.10;;
36689;SDS011;22676;51.120;3.702;2023-07-13T13:56:17;3.30;;;1.00;;
36689;SDS011;22676;51.120;3.702;2023-07-13T13:58:44;1.75;;;1.02;;
36689;SDS011;22676;51.120;3.702;2023-07-13T14:01:17;2.00;;;1.30;;
36689;SDS011;22676;51.120;3.702;2023-07-13T14:03:45;3.97;;;1.60;;
36689;SDS011;22676;51.120;3.702;2023-07-13T14:06:13;4.35;;;1.50;;
36689;SDS011;22676;51.120;3.702;2023-07-13T14:08:40;4.90;;;1.63;;
36689;SDS011;22676;51.120;3.702;2023-07-13T14:11:07;6.97;;;1.67;;
36689;SDS011;22676;51.120;3.702;2023-07-13T14:13:38;3.38;;;1.67;;
36689;SDS011;22676;51.120;3.702;2023-07-13T14:16:11;4.20;;;1.58;;
36689;SDS011;22676;51.120;3.702;2023-07-13T14:18:38;2.40;;;1.48;;
36689;SDS011;22676;51.120;3.702;2023-07-13T14:21:08;2.28;;;1.40;;
36689;SDS011;22676;51.120;3.702;2023-07-13T14:23:38;2.15;;;1.27;;
36689;SDS011;22676;51.120;3.702;2023-07-13T14:26:07;7.50;;;1.42;;
36689;SDS011;22676;51.120;3.702;2023-07-13T14:28:36;3.38;;;1.30;;
36689;SDS011;22676;51.120;3.702;2023-07-13T14:31:08;2.55;;;1.20;;
36689;SDS011;22676;51.120;3.702;2023-07-13T14:33:34;2.67;;;1.25;;
36689;SDS011;22676;51.120;3.702;2023-07-13T14:35:59;3.60;;;1.45;;
36689;SDS011;22676;51.120;3.702;2023-07-13T14:38:25;2.20;;;1.40;;
36689;SDS011;22676;51.120;3.702;2023-07-13T14:40:51;4.13;;;1.50;;
36689;SDS011;22676;51.120;3.702;2023-07-13T14:43:17;1.92;;;1.45;;
36689;SDS011;22676;51.120;3.702;2023-07-13T14:45:44;2.42;;;1.40;;
36689;SDS011;22676;51.120;3.702;2023-07-13T14:48:16;2.28;;;1.60;;
36689;SDS011;22676;51.120;3.702;2023-07-13T14:50:44;2.50;;;1.58;;
36689;SDS011;22676;51.120;3.702;2023-07-13T14:53:12;4.20;;;1.23;;
36689;SDS011;22676;51.120;3.702;2023-07-13T14:55:38;2.58;;;1.50;;
36689;SDS011;22676;51.120;3.702;2023-07-13T14:58:04;2.30;;;1.50;;
36689;SDS011;22676;51.120;3.702;2023-07-13T15:00:30;3.75;;;1.52;;
36689;SDS011;22676;51.120;3.702;2023-07-13T15:02:57;5.30;;;1.45;;
36689;SDS011;22676;51.120;3.702;2023-07-13T15:05:26;2.53;;;1.30;;
36689;SDS011;22676;51.120;3.702;2023-07-13T15:07:56;4.15;;;1.25;;
36689;SDS011;22676;51.120;3.702;2023-07-13T15:10:28;1.58;;;1.35;;
36689;SDS011;22676;51.120;3.702;2023-07-13T15:12:58;3.95;;;1.48;;
36689;SDS011;22676;51.120;3.702;2023-07-13T15:15:38;3.85;;;1.60;;
36689;SDS011;22676;51.120;3.702;2023-07-13T15:18:09;2.42;;;1.48;;
36689;SDS011;22676;51.120;3.702;2023-07-13T15:20:36;6.13;;;1.50;;
36689;SDS011;22676;51.120;3.702;2023-07-13T15:23:03;3.28;;;1.20;;
36689;SDS011;22676;51.120;3.702;2023-07-13T15:25:30;2.17;;;1.15;;
36689;SDS011;22676;51.120;3.702;2023-07-13T15:27:58;2.03;;;1.20;;
36689;SDS011;22676;51.120;3.702;2023-07-13T15:30:25;3.45;;;1.40;;